Nearby METAR Reports

 

KSBP - San Luis Obispo, California, USA
Distance from station: S 14mi, 22km
Updated: Wed, 03-Jun-2020 12:56pm PDT
Clear
Clear
 Wind from NW
Wind: NW 17 mph , 28 km/h
Temperature: 84°F , 29°C
Heat Index: 83°F , 28°C
Dew Point: 57°F , 14°C
Humidity: 40%
Barometer: 1012.5 hPa
Clouds: Clear
Visibility: 10 miles , 16 km
2020/06/03 19:56 KSBP 031956Z 31015KT 10SM CLR 29/14 A2990 RMK AO2 SLP120 T02940139
KPRB - Paso Robles, California, USA
Distance from station: N 16mi, 26km
Updated: Wed, 03-Jun-2020 11:53am PDT
Clear
Clear
 Wind from NE
Wind: NE 7 mph , 11 km/h
Temperature: 93°F , 34°C
Dew Point: 54°F , 12°C
Humidity: 26%
Barometer: 1014.2 hPa
Clouds: Clear
Visibility: 10 miles , 16 km
2020/06/03 18:53 KPRB 031853Z AUTO 05006KT 10SM CLR 34/12 A2995 RMK AO2 SLP132 T03390117
 
KSMX - Santa Maria, California, USA
Distance from station: SSE 38mi, 62km
Updated: Wed, 03-Jun-2020 12:51pm PDT
Clear
Clear
 Wind from WNW
Wind: WNW 13 mph , 20 km/h
Temperature: 79°F , 26°C
Dew Point: 59°F , 15°C
Humidity: 51%
Barometer: 1012.9 hPa
Clouds: Clear
Visibility: 8 miles , 13 km
2020/06/03 19:51 KSMX 031951Z 30011KT 8SM CLR 26/15 A2991 RMK AO2 SLP129 T02610150
KVBG - Vandenberg Afb, California, USA
Distance from station: S 48mi, 78km
Updated: Wed, 03-Jun-2020 11:58am PDT
Few Clouds
Few Clouds
 Wind from N
Wind: N 9 mph , 15 km/h
Temperature: 77°F , 25°C
Dew Point: 57°F , 14°C
Humidity: 51%
Barometer: 1013.5 hPa
Clouds: Few Clouds
Visibility: 10 miles , 16 km
Cloud details: Few Clouds 5000 ft
Few Clouds 35000 ft
2020/06/03 18:58 KVBG 031858Z 35008KT 10SM FEW050 FEW350 25/14 A2993 RMK AO2A SLP137 T02470144